createdAt,value
2022-10-31T00:01:46.611Z,12.32
2022-10-31T00:04:13.114Z,12.31
2022-10-31T00:04:26.302Z,12.31
2022-10-31T00:06:39.527Z,12.27
2022-10-31T00:09:06.506Z,12.08
2022-10-31T00:09:26.312Z,12.08
2022-10-31T00:11:33.102Z,12.22
2022-10-31T00:13:59.975Z,11.93
2022-10-31T00:14:26.301Z,11.93
2022-10-31T00:16:27.623Z,11.77
2022-10-31T00:18:59.905Z,12.09
2022-10-31T00:19:26.342Z,12.09
2022-10-31T00:21:27.450Z,12.12
2022-10-31T00:23:53.985Z,12.10
2022-10-31T00:24:26.317Z,12.10
2022-10-31T00:26:20.739Z,11.61
2022-10-31T00:28:47.404Z,12.03
2022-10-31T00:29:26.303Z,12.03
2022-10-31T00:31:14.035Z,12.02
2022-10-31T00:33:41.511Z,11.20
2022-10-31T00:34:26.337Z,11.20
2022-10-31T00:36:11.509Z,11.73
2022-10-31T00:38:38.041Z,11.81
2022-10-31T00:39:26.361Z,11.81
2022-10-31T00:41:04.599Z,11.20
2022-10-31T00:43:30.944Z,11.60
2022-10-31T00:44:26.299Z,11.60
2022-10-31T00:45:57.384Z,10.70
2022-10-31T00:48:23.930Z,11.42
2022-10-31T00:49:26.305Z,11.42
2022-10-31T00:50:50.323Z,11.73
2022-10-31T00:53:16.660Z,11.69
2022-10-31T00:54:26.353Z,11.69
2022-10-31T00:55:43.061Z,11.65
2022-10-31T00:58:09.582Z,11.92
2022-10-31T00:59:26.332Z,11.92
2022-10-31T01:00:35.996Z,12.06
2022-10-31T01:03:02.688Z,12.09
2022-10-31T01:04:26.355Z,12.09
2022-10-31T01:05:29.747Z,12.02
2022-10-31T01:07:56.135Z,12.21
2022-10-31T01:09:26.311Z,12.21
2022-10-31T01:10:22.726Z,11.93
2022-10-31T01:12:50.045Z,12.17
2022-10-31T01:14:26.310Z,12.17
2022-10-31T01:15:19.925Z,12.13
2022-10-31T01:17:46.711Z,12.23
2022-10-31T01:19:26.530Z,12.23
2022-10-31T01:20:15.901Z,11.02
2022-10-31T01:22:42.671Z,12.10
2022-10-31T01:24:26.332Z,12.10
2022-10-31T01:25:12.845Z,12.05
2022-10-31T01:27:39.309Z,11.84
2022-10-31T01:29:26.318Z,11.84
2022-10-31T01:30:06.470Z,12.03
2022-10-31T01:32:33.231Z,11.83
2022-10-31T01:34:26.323Z,11.83
2022-10-31T01:35:00.207Z,12.04
2022-10-31T01:37:26.555Z,12.00
2022-10-31T01:39:26.321Z,12.00
2022-10-31T01:39:53.049Z,11.95
2022-10-31T01:42:21.919Z,11.94
2022-10-31T01:44:26.320Z,11.94
2022-10-31T01:44:53.258Z,11.90
2022-10-31T01:47:29.290Z,11.50
2022-10-31T01:49:26.325Z,11.50
2022-10-31T01:50:01.258Z,11.42
2022-10-31T01:52:40.245Z,11.69
2022-10-31T01:54:26.331Z,11.69
2022-10-31T01:55:30.351Z,11.75
2022-10-31T01:58:03.806Z,11.61
2022-10-31T01:59:26.325Z,11.61
2022-10-31T02:00:31.470Z,11.18
2022-10-31T02:02:58.257Z,11.13
2022-10-31T02:04:26.346Z,11.13
2022-10-31T02:05:28.590Z,11.51
2022-10-31T02:08:03.751Z,11.46
2022-10-31T02:09:26.387Z,11.46
2022-10-31T02:10:32.501Z,11.47
2022-10-31T02:13:00.957Z,11.44
2022-10-31T02:14:26.335Z,11.44
2022-10-31T02:15:29.381Z,11.15
2022-10-31T02:17:55.719Z,11.40
2022-10-31T02:19:26.354Z,11.40
2022-10-31T02:20:25.438Z,11.13
2022-10-31T02:23:29.237Z,11.34
2022-10-31T02:24:26.325Z,11.34
2022-10-31T02:26:26.285Z,11.28
2022-10-31T02:29:11.579Z,11.25
2022-10-31T02:29:26.321Z,11.25
2022-10-31T02:31:52.480Z,11.22
2022-10-31T02:34:26.316Z,11.18
2022-10-31T02:34:26.443Z,11.18
2022-10-31T02:37:02.835Z,11.14
2022-10-31T02:39:26.350Z,11.14
2022-10-31T02:39:41.849Z,11.10
2022-10-31T02:42:26.977Z,11.09
2022-10-31T02:44:26.329Z,11.09
2022-10-31T02:45:16.622Z,11.09
2022-10-31T02:47:43.644Z,10.80
2022-10-31T02:49:26.354Z,10.80
2022-10-31T02:50:17.124Z,11.03
2022-10-31T02:52:43.460Z,11.08
2022-10-31T02:54:26.368Z,11.08
2022-10-31T02:55:23.439Z,11.08
2022-10-31T02:57:53.409Z,10.92
2022-10-31T02:59:26.339Z,10.92
2022-10-31T03:00:19.913Z,10.91
2022-10-31T03:03:12.609Z,10.96
2022-10-31T03:04:26.343Z,10.96
2022-10-31T03:06:11.012Z,11.15
2022-10-31T03:08:45.581Z,11.16
2022-10-31T03:09:26.342Z,11.16
2022-10-31T03:11:12.007Z,11.07
2022-10-31T03:14:13.671Z,11.48
2022-10-31T03:14:26.319Z,11.48
2022-10-31T03:16:50.693Z,11.55
2022-10-31T03:19:23.912Z,11.49
2022-10-31T03:19:26.389Z,11.49
2022-10-31T03:21:57.134Z,11.45
2022-10-31T03:24:28.527Z,11.58
2022-10-31T03:24:28.645Z,11.58
2022-10-31T03:26:58.602Z,11.46
2022-10-31T03:29:32.190Z,11.46
2022-10-31T03:29:32.354Z,11.46
2022-10-31T03:32:05.439Z,11.51
2022-10-31T03:34:26.334Z,11.51
2022-10-31T03:34:32.861Z,11.51
2022-10-31T03:37:04.420Z,11.51
2022-10-31T03:39:26.352Z,11.51
2022-10-31T03:39:32.365Z,11.47
2022-10-31T03:42:25.408Z,11.33
2022-10-31T03:44:26.443Z,11.33
2022-10-31T03:45:07.868Z,11.42
2022-10-31T03:47:37.761Z,11.35
2022-10-31T03:49:26.460Z,11.35
2022-10-31T03:50:06.375Z,11.06
2022-10-31T03:52:48.020Z,10.62
2022-10-31T03:54:26.349Z,10.62
2022-10-31T03:55:27.647Z,11.29
2022-10-31T03:58:05.033Z,11.41
2022-10-31T03:59:26.349Z,11.41
2022-10-31T04:00:33.340Z,11.31
2022-10-31T04:03:07.033Z,11.29
2022-10-31T04:04:26.353Z,11.29
2022-10-31T04:05:35.346Z,10.95
2022-10-31T04:08:05.190Z,10.98
2022-10-31T04:09:26.351Z,10.98
2022-10-31T04:10:33.854Z,10.80
2022-10-31T04:13:09.645Z,11.18
2022-10-31T04:14:26.418Z,11.18
2022-10-31T04:15:38.270Z,11.02
2022-10-31T04:18:06.293Z,10.86
2022-10-31T04:19:26.378Z,10.86
2022-10-31T04:20:34.615Z,11.14
2022-10-31T04:23:02.260Z,10.75
2022-10-31T04:24:26.408Z,10.75
2022-10-31T04:25:29.257Z,10.95
2022-10-31T04:27:56.424Z,11.14
2022-10-31T04:29:26.345Z,11.14
2022-10-31T04:30:23.053Z,10.13
2022-10-31T04:32:49.445Z,11.08
2022-10-31T04:34:26.375Z,11.08
2022-10-31T04:35:16.774Z,11.02
2022-10-31T04:37:43.235Z,10.85
2022-10-31T04:39:26.734Z,10.85
2022-10-31T04:40:10.356Z,10.92
2022-10-31T04:42:36.757Z,10.41
2022-10-31T04:44:26.340Z,10.41
2022-10-31T04:45:03.415Z,10.67
2022-10-31T04:47:33.336Z,10.87
2022-10-31T04:49:26.386Z,10.87
2022-10-31T04:50:00.102Z,10.47
2022-10-31T04:52:26.486Z,10.82
2022-10-31T04:54:26.408Z,10.82
2022-10-31T04:54:52.826Z,10.80
2022-10-31T04:57:19.441Z,10.76
2022-10-31T04:59:26.376Z,10.76
2022-10-31T04:59:45.860Z,10.19
2022-10-31T05:02:12.301Z,10.71
2022-10-31T05:04:26.351Z,10.71
2022-10-31T05:04:38.843Z,10.71
2022-10-31T05:07:05.226Z,10.61
2022-10-31T05:09:26.356Z,10.61
2022-10-31T05:09:31.747Z,10.65
2022-10-31T05:11:58.088Z,10.75
2022-10-31T05:14:24.474Z,10.77
2022-10-31T05:14:26.339Z,10.77
2022-10-31T05:16:50.909Z,10.43
2022-10-31T05:19:17.314Z,10.75
2022-10-31T05:19:26.360Z,10.75
2022-10-31T05:21:43.876Z,10.72
2022-10-31T05:24:10.300Z,9.56
2022-10-31T05:24:26.433Z,9.56
2022-10-31T05:26:36.646Z,10.66
2022-10-31T05:29:03.247Z,10.74
2022-10-31T05:29:26.359Z,10.74
2022-10-31T05:31:29.710Z,10.27
2022-10-31T05:33:56.135Z,10.57
2022-10-31T05:34:26.379Z,10.57
2022-10-31T05:36:22.463Z,10.72
2022-10-31T05:38:48.774Z,10.26
2022-10-31T05:39:26.359Z,10.26
2022-10-31T05:41:15.238Z,10.74
2022-10-31T05:43:41.581Z,10.70
2022-10-31T05:44:26.387Z,10.70
2022-10-31T05:46:07.914Z,10.74
2022-10-31T05:48:34.296Z,10.72
2022-10-31T05:49:26.394Z,10.72
2022-10-31T05:51:00.686Z,10.16
2022-10-31T05:53:27.078Z,10.19
2022-10-31T05:54:26.496Z,10.19
2022-10-31T05:55:53.504Z,10.44
2022-10-31T05:58:19.989Z,10.34
2022-10-31T05:59:26.414Z,10.34
2022-10-31T06:00:46.489Z,10.64
2022-10-31T06:03:12.858Z,10.58
2022-10-31T06:04:26.510Z,10.58
2022-10-31T06:05:39.421Z,10.60
2022-10-31T06:08:06.111Z,10.57
2022-10-31T06:09:26.369Z,10.57
2022-10-31T06:10:32.625Z,10.51
2022-10-31T06:12:59.061Z,9.89
2022-10-31T06:14:26.358Z,9.89
2022-10-31T06:15:25.449Z,10.46
2022-10-31T06:18:06.740Z,10.45
2022-10-31T06:19:26.379Z,10.45
2022-10-31T06:20:34.323Z,10.46
2022-10-31T06:23:01.326Z,10.16
2022-10-31T06:24:26.405Z,10.16
2022-10-31T06:25:28.357Z,10.41
2022-10-31T06:27:55.550Z,10.11
2022-10-31T06:29:26.421Z,10.11
2022-10-31T06:30:22.217Z,10.28
2022-10-31T06:32:48.696Z,9.78
2022-10-31T06:34:26.382Z,9.78
2022-10-31T06:35:15.266Z,10.18
2022-10-31T06:37:44.353Z,10.09
2022-10-31T06:39:26.372Z,10.09
2022-10-31T06:40:13.182Z,10.17
2022-10-31T06:42:39.520Z,9.84
2022-10-31T06:44:26.387Z,9.84
2022-10-31T06:45:06.250Z,10.26
2022-10-31T06:47:35.319Z,10.05
2022-10-31T06:49:26.376Z,10.05
2022-10-31T06:50:08.192Z,10.35
2022-10-31T06:52:34.606Z,10.02
2022-10-31T06:54:26.389Z,10.02
2022-10-31T06:55:00.909Z,10.50
2022-10-31T06:57:27.264Z,10.58
2022-10-31T06:59:26.383Z,10.58
2022-10-31T06:59:53.625Z,10.23
2022-10-31T07:02:20.032Z,10.67
2022-10-31T07:04:26.382Z,10.67
2022-10-31T07:04:46.508Z,10.71
2022-10-31T07:07:12.964Z,10.43
2022-10-31T07:09:26.434Z,10.43
2022-10-31T07:09:39.372Z,10.76
2022-10-31T07:12:05.915Z,10.77
2022-10-31T07:14:26.376Z,10.77
2022-10-31T07:14:32.277Z,10.21
2022-10-31T07:16:58.763Z,10.78
2022-10-31T07:19:25.110Z,10.57
2022-10-31T07:19:26.664Z,10.57
2022-10-31T07:21:51.573Z,10.52
2022-10-31T07:24:17.878Z,10.81
2022-10-31T07:24:26.381Z,10.81
2022-10-31T07:26:44.593Z,10.96
2022-10-31T07:29:11.033Z,10.97
2022-10-31T07:29:26.390Z,10.97
2022-10-31T07:31:37.385Z,10.95
2022-10-31T07:34:03.795Z,11.03
2022-10-31T07:34:26.490Z,11.03
2022-10-31T07:36:30.239Z,10.81
2022-10-31T07:38:56.528Z,10.87
2022-10-31T07:39:26.377Z,10.87
2022-10-31T07:41:22.998Z,11.20
2022-10-31T07:43:49.448Z,10.77
2022-10-31T07:44:26.378Z,10.77
2022-10-31T07:46:15.932Z,11.40
2022-10-31T07:48:42.268Z,11.50
2022-10-31T07:49:26.453Z,11.50
2022-10-31T07:51:08.629Z,11.60
2022-10-31T07:53:35.065Z,11.64
2022-10-31T07:54:26.405Z,11.64
2022-10-31T07:56:01.474Z,11.71
2022-10-31T07:58:27.908Z,11.64
2022-10-31T07:59:26.396Z,11.64
2022-10-31T08:00:54.443Z,11.80
2022-10-31T08:03:20.864Z,11.84
2022-10-31T08:04:26.393Z,11.84
2022-10-31T08:05:47.354Z,11.80
2022-10-31T08:08:15.064Z,11.91
2022-10-31T08:09:26.415Z,11.91
2022-10-31T08:10:41.599Z,12.04
2022-10-31T08:13:13.124Z,12.10
2022-10-31T08:14:26.458Z,12.10
2022-10-31T08:15:42.408Z,12.07
2022-10-31T08:18:15.834Z,12.12
2022-10-31T08:19:26.504Z,12.12
2022-10-31T08:20:43.549Z,12.15
2022-10-31T08:23:12.539Z,11.99
2022-10-31T08:24:26.469Z,11.99
2022-10-31T08:25:39.305Z,12.31
2022-10-31T08:28:07.776Z,12.49
2022-10-31T08:29:26.398Z,12.49
2022-10-31T08:30:36.365Z,12.44
2022-10-31T08:33:12.145Z,12.69
2022-10-31T08:34:26.394Z,12.69
2022-10-31T08:35:38.916Z,12.66
2022-10-31T08:38:05.810Z,12.54
2022-10-31T08:39:26.424Z,12.54
2022-10-31T08:40:33.530Z,12.70
2022-10-31T08:43:02.064Z,13.05
2022-10-31T08:44:26.386Z,13.05
2022-10-31T08:45:29.904Z,12.97
2022-10-31T08:48:05.974Z,12.97
2022-10-31T08:49:26.393Z,12.97
2022-10-31T08:50:34.995Z,12.94
2022-10-31T08:53:06.849Z,12.71
2022-10-31T08:54:26.403Z,12.71
2022-10-31T08:55:37.532Z,13.14
2022-10-31T08:58:06.254Z,13.40
2022-10-31T08:59:26.418Z,13.40
2022-10-31T09:00:33.709Z,13.04
2022-10-31T09:03:02.330Z,13.34
2022-10-31T09:04:26.395Z,13.34
2022-10-31T09:05:29.358Z,13.21
2022-10-31T09:08:00.806Z,13.65
2022-10-31T09:09:26.398Z,13.65
2022-10-31T09:10:31.378Z,13.70
2022-10-31T09:13:12.758Z,13.61
2022-10-31T09:14:26.415Z,13.61
2022-10-31T09:15:43.370Z,13.96
2022-10-31T09:18:10.158Z,13.71
2022-10-31T09:19:26.573Z,13.71
2022-10-31T09:20:38.164Z,14.19
2022-10-31T09:23:11.433Z,14.31
2022-10-31T09:24:26.450Z,14.31
2022-10-31T09:25:38.164Z,13.93
2022-10-31T09:28:06.122Z,14.33
2022-10-31T09:29:26.491Z,14.33
2022-10-31T09:30:34.566Z,14.71
2022-10-31T09:33:06.205Z,14.66
2022-10-31T09:34:26.419Z,14.66
2022-10-31T09:35:33.093Z,14.86
2022-10-31T09:38:02.117Z,14.80
2022-10-31T09:39:26.425Z,14.80
2022-10-31T09:40:32.131Z,14.48
2022-10-31T09:43:03.283Z,14.58
2022-10-31T09:44:26.425Z,14.58
2022-10-31T09:45:42.372Z,14.93
2022-10-31T09:48:42.727Z,15.01
2022-10-31T09:49:26.540Z,15.01
2022-10-31T09:51:26.305Z,14.90
2022-10-31T09:54:05.573Z,14.80
2022-10-31T09:54:26.437Z,14.80
2022-10-31T09:56:33.473Z,15.17
2022-10-31T09:59:02.386Z,14.91
2022-10-31T09:59:26.443Z,14.91
2022-10-31T10:01:49.265Z,15.40
2022-10-31T10:04:47.994Z,15.53
2022-10-31T10:04:48.132Z,15.53
2022-10-31T10:07:23.822Z,15.56
2022-10-31T10:09:26.401Z,15.56
2022-10-31T10:09:50.325Z,15.21
2022-10-31T10:13:06.547Z,15.42
2022-10-31T10:14:26.416Z,15.42
2022-10-31T10:15:51.537Z,15.77
2022-10-31T10:18:51.272Z,15.87
2022-10-31T10:19:26.724Z,15.87
2022-10-31T10:21:32.931Z,15.94
2022-10-31T10:24:22.830Z,15.49
2022-10-31T10:24:26.429Z,15.49
2022-10-31T10:27:08.059Z,15.85
2022-10-31T10:29:26.422Z,15.85
2022-10-31T10:29:45.537Z,15.75
2022-10-31T10:32:22.961Z,15.91
2022-10-31T10:34:26.471Z,15.91
2022-10-31T10:34:59.092Z,15.80
2022-10-31T10:37:40.580Z,15.97
2022-10-31T10:39:26.416Z,15.97
2022-10-31T10:40:16.650Z,15.99
2022-10-31T10:43:09.968Z,16.19
2022-10-31T10:44:26.420Z,16.19
2022-10-31T10:45:57.101Z,16.53
2022-10-31T10:48:42.480Z,16.46
2022-10-31T10:49:26.424Z,16.46
2022-10-31T10:51:32.070Z,16.72
2022-10-31T10:54:21.743Z,17.07
2022-10-31T10:54:26.433Z,17.07
2022-10-31T10:57:13.132Z,17.27
2022-10-31T10:59:26.439Z,17.27
2022-10-31T10:59:39.841Z,17.21
2022-10-31T11:02:18.467Z,17.38
2022-10-31T11:04:26.428Z,17.38
2022-10-31T11:04:48.419Z,17.39
2022-10-31T11:07:14.741Z,17.02
2022-10-31T11:09:26.460Z,17.02
2022-10-31T11:09:41.211Z,17.35
2022-10-31T11:12:25.325Z,17.36
2022-10-31T11:14:26.445Z,17.36
2022-10-31T11:14:56.812Z,17.34
2022-10-31T11:17:31.242Z,17.38
2022-10-31T11:19:26.717Z,17.38
2022-10-31T11:20:21.552Z,17.53
2022-10-31T11:22:49.235Z,17.73
2022-10-31T11:24:26.430Z,17.73
2022-10-31T11:25:25.610Z,17.89
2022-10-31T11:28:10.505Z,18.10
2022-10-31T11:29:26.435Z,18.10
2022-10-31T11:30:45.743Z,18.20
2022-10-31T11:33:20.018Z,18.39
2022-10-31T11:34:26.431Z,18.39
2022-10-31T11:35:50.975Z,18.32
2022-10-31T11:38:23.921Z,18.01
2022-10-31T11:39:26.561Z,18.01
2022-10-31T11:41:04.698Z,18.47
2022-10-31T11:43:31.033Z,18.25
2022-10-31T11:44:26.541Z,18.25
2022-10-31T11:45:57.896Z,18.10
2022-10-31T11:48:26.166Z,18.15
2022-10-31T11:50:58.239Z,18.48
2022-10-31T11:53:30.724Z,18.59
2022-10-31T11:54:26.452Z,18.59
2022-10-31T11:56:08.217Z,18.57
2022-10-31T11:58:34.775Z,18.20
2022-10-31T11:59:26.461Z,18.20
2022-10-31T12:01:01.164Z,18.56
2022-10-31T12:03:36.402Z,18.71
2022-10-31T12:04:26.441Z,18.71
2022-10-31T12:06:08.544Z,17.80
2022-10-31T12:08:37.133Z,18.98
2022-10-31T12:09:26.465Z,18.98
2022-10-31T12:11:21.595Z,18.95
2022-10-31T12:14:01.160Z,18.84
2022-10-31T12:14:26.453Z,18.84
2022-10-31T12:16:37.680Z,18.77
2022-10-31T12:19:15.557Z,19.04
2022-10-31T12:19:26.493Z,19.04
2022-10-31T12:22:02.674Z,19.12
2022-10-31T12:24:26.470Z,19.12
2022-10-31T12:25:10.335Z,19.06
2022-10-31T12:28:00.826Z,19.07
2022-10-31T12:29:26.439Z,19.07
2022-10-31T12:30:47.768Z,19.08
2022-10-31T12:33:14.624Z,18.89
2022-10-31T12:34:26.450Z,18.89
2022-10-31T12:36:14.427Z,18.58
2022-10-31T12:39:00.152Z,18.87
2022-10-31T12:39:26.452Z,18.87
2022-10-31T12:41:45.654Z,17.97
2022-10-31T12:44:33.606Z,18.56
2022-10-31T12:44:33.733Z,18.56
2022-10-31T12:47:07.726Z,18.63
2022-10-31T12:49:26.464Z,18.63
2022-10-31T12:49:47.087Z,18.55
2022-10-31T12:52:27.628Z,18.09
2022-10-31T12:54:26.529Z,18.09
2022-10-31T12:55:04.232Z,18.25
2022-10-31T12:57:30.636Z,18.20
2022-10-31T12:59:26.481Z,18.20
2022-10-31T13:00:19.222Z,18.14
2022-10-31T13:02:51.905Z,18.03
2022-10-31T13:04:26.474Z,18.03
2022-10-31T13:05:21.352Z,18.03
2022-10-31T13:07:58.714Z,18.01
2022-10-31T13:09:26.512Z,18.01
2022-10-31T13:10:36.455Z,18.07
2022-10-31T13:13:24.593Z,18.10
2022-10-31T13:14:26.465Z,18.10
2022-10-31T13:16:16.797Z,18.02
2022-10-31T13:18:48.953Z,18.21
2022-10-31T13:19:26.543Z,18.21
2022-10-31T13:21:27.150Z,18.16
2022-10-31T13:23:57.363Z,18.23
2022-10-31T13:24:26.477Z,18.23
2022-10-31T13:26:36.642Z,18.23
2022-10-31T13:29:24.680Z,18.27
2022-10-31T13:29:29.919Z,18.27
2022-10-31T13:31:53.549Z,18.08
2022-10-31T13:34:39.657Z,18.42
2022-10-31T13:34:39.850Z,18.42
2022-10-31T13:37:27.817Z,18.48
2022-10-31T13:39:26.459Z,18.48
2022-10-31T13:40:06.067Z,18.57
2022-10-31T13:42:59.591Z,18.54
2022-10-31T13:44:26.472Z,18.54
2022-10-31T13:45:27.669Z,18.49
2022-10-31T13:48:18.928Z,18.54
2022-10-31T13:49:26.484Z,18.54
2022-10-31T13:51:02.263Z,18.46
2022-10-31T13:53:59.844Z,18.37
2022-10-31T13:54:26.611Z,18.37
2022-10-31T13:56:32.728Z,18.26
2022-10-31T13:59:07.961Z,18.23
2022-10-31T13:59:26.594Z,18.23
2022-10-31T14:01:34.961Z,18.26
2022-10-31T14:04:22.324Z,18.03
2022-10-31T14:04:26.617Z,18.03
2022-10-31T14:06:58.187Z,18.30
2022-10-31T14:09:27.151Z,18.32
2022-10-31T14:09:27.300Z,18.32
2022-10-31T14:11:54.378Z,18.34
2022-10-31T14:14:24.778Z,18.37
2022-10-31T14:14:26.460Z,18.37
2022-10-31T14:16:57.291Z,18.36
2022-10-31T14:19:23.831Z,18.33
2022-10-31T14:19:26.659Z,18.33
2022-10-31T14:21:51.553Z,18.27
2022-10-31T14:24:23.979Z,18.28
2022-10-31T14:24:26.549Z,18.28
2022-10-31T14:27:02.702Z,17.86
2022-10-31T14:29:26.487Z,17.86
2022-10-31T14:29:31.416Z,17.89
2022-10-31T14:32:08.428Z,18.18
2022-10-31T14:34:26.509Z,18.18
2022-10-31T14:34:38.050Z,17.68
2022-10-31T14:37:26.348Z,18.05
2022-10-31T14:39:26.486Z,18.05
2022-10-31T14:40:11.685Z,18.05
2022-10-31T14:42:50.420Z,18.09
2022-10-31T14:44:26.472Z,18.09
2022-10-31T14:45:35.246Z,17.79
2022-10-31T14:48:14.208Z,17.97
2022-10-31T14:49:26.489Z,17.97
2022-10-31T14:50:46.664Z,17.98
2022-10-31T14:53:19.602Z,17.66
2022-10-31T14:54:26.628Z,17.66
2022-10-31T14:55:50.177Z,17.98
2022-10-31T14:58:22.640Z,17.83
2022-10-31T14:59:26.487Z,17.83
2022-10-31T15:00:53.706Z,17.39
2022-10-31T15:03:35.253Z,17.51
2022-10-31T15:04:26.499Z,17.51
2022-10-31T15:06:06.253Z,17.53
2022-10-31T15:08:46.537Z,17.65
2022-10-31T15:09:26.477Z,17.65
2022-10-31T15:11:14.505Z,17.85
2022-10-31T15:13:46.344Z,17.79
2022-10-31T15:14:26.498Z,17.79
2022-10-31T15:16:15.033Z,17.61
2022-10-31T15:18:52.992Z,17.76
2022-10-31T15:19:26.853Z,17.76
2022-10-31T15:21:21.594Z,17.70
2022-10-31T15:23:48.556Z,17.60
2022-10-31T15:24:26.506Z,17.60
2022-10-31T15:26:24.012Z,17.58
2022-10-31T15:29:02.837Z,17.54
2022-10-31T15:29:26.506Z,17.54
2022-10-31T15:31:29.556Z,17.13
2022-10-31T15:33:59.495Z,17.22
2022-10-31T15:34:26.495Z,17.22
2022-10-31T15:36:29.218Z,17.30
2022-10-31T15:38:58.679Z,17.34
2022-10-31T15:39:26.489Z,17.34
2022-10-31T15:41:37.355Z,17.32
2022-10-31T15:44:15.348Z,16.90
2022-10-31T15:44:26.504Z,16.90
2022-10-31T15:46:42.094Z,17.25
2022-10-31T15:49:26.835Z,16.64
2022-10-31T15:49:27.527Z,16.64
2022-10-31T15:51:54.734Z,16.97
2022-10-31T15:54:21.445Z,17.15
2022-10-31T15:54:26.652Z,17.15
2022-10-31T15:56:48.558Z,17.09
2022-10-31T15:59:22.680Z,17.08
2022-10-31T15:59:26.492Z,17.08
2022-10-31T16:02:03.854Z,17.01
2022-10-31T16:04:26.580Z,17.01
2022-10-31T16:04:31.044Z,17.00
2022-10-31T16:07:22.909Z,16.89
2022-10-31T16:09:26.512Z,16.89
2022-10-31T16:10:01.332Z,16.64
2022-10-31T16:12:37.104Z,16.74
2022-10-31T16:14:26.554Z,16.74
2022-10-31T16:15:05.823Z,16.80
2022-10-31T16:17:32.727Z,16.75
2022-10-31T16:19:26.661Z,16.75
2022-10-31T16:20:03.328Z,16.75
2022-10-31T16:22:35.999Z,16.67
2022-10-31T16:24:26.505Z,16.67
2022-10-31T16:25:10.779Z,16.77
2022-10-31T16:27:39.547Z,16.66
2022-10-31T16:29:26.511Z,16.66
2022-10-31T16:30:48.709Z,16.76
2022-10-31T16:33:30.417Z,16.74
2022-10-31T16:34:27.173Z,16.74
2022-10-31T16:36:09.610Z,16.75
2022-10-31T16:38:42.460Z,16.52
2022-10-31T16:39:26.513Z,16.52
2022-10-31T16:41:08.925Z,16.43
2022-10-31T16:43:35.689Z,16.61
2022-10-31T16:44:26.516Z,16.61
2022-10-31T16:46:02.035Z,16.07
2022-10-31T16:48:28.447Z,16.52
2022-10-31T16:49:26.515Z,16.52
2022-10-31T16:50:54.786Z,16.64
2022-10-31T16:53:21.381Z,16.63
2022-10-31T16:54:26.542Z,16.63
2022-10-31T16:55:54.851Z,16.61
2022-10-31T16:58:44.031Z,16.37
2022-10-31T16:59:26.518Z,16.37
2022-10-31T17:01:13.799Z,16.39
2022-10-31T17:03:40.840Z,16.55
2022-10-31T17:04:26.646Z,16.55
2022-10-31T17:06:12.808Z,16.12
2022-10-31T17:08:39.333Z,16.41
2022-10-31T17:09:26.538Z,16.41
2022-10-31T17:11:06.272Z,16.33
2022-10-31T17:13:34.608Z,16.46
2022-10-31T17:14:26.564Z,16.46
2022-10-31T17:16:03.194Z,16.43
2022-10-31T17:18:30.771Z,16.31
2022-10-31T17:19:26.697Z,16.31
2022-10-31T17:21:02.772Z,16.39
2022-10-31T17:23:29.719Z,16.38
2022-10-31T17:24:26.539Z,16.38
2022-10-31T17:25:56.798Z,15.92
2022-10-31T17:28:23.428Z,16.00
2022-10-31T17:29:26.533Z,16.00
2022-10-31T17:30:49.932Z,15.94
2022-10-31T17:33:17.212Z,14.87
2022-10-31T17:34:26.551Z,14.87
2022-10-31T17:35:47.165Z,16.07
2022-10-31T17:38:13.948Z,16.05
2022-10-31T17:39:26.527Z,16.05
2022-10-31T17:40:44.120Z,15.95
2022-10-31T17:43:11.594Z,15.65
2022-10-31T17:44:26.522Z,15.65
2022-10-31T17:45:41.940Z,15.49
2022-10-31T17:48:12.119Z,15.31
2022-10-31T17:49:26.545Z,15.31
2022-10-31T17:50:38.525Z,15.42
2022-10-31T17:53:05.126Z,15.60
2022-10-31T17:54:26.620Z,15.60
2022-10-31T17:55:36.092Z,15.13
2022-10-31T17:58:05.242Z,15.50
2022-10-31T17:59:26.540Z,15.50
2022-10-31T18:00:32.084Z,15.45
2022-10-31T18:02:58.859Z,15.40
2022-10-31T18:04:26.535Z,15.40
2022-10-31T18:05:25.568Z,15.40
2022-10-31T18:07:52.003Z,15.41
2022-10-31T18:09:26.535Z,15.41
2022-10-31T18:10:18.498Z,15.31
2022-10-31T18:12:44.961Z,15.23
2022-10-31T18:14:26.523Z,15.23
2022-10-31T18:15:11.432Z,14.94
2022-10-31T18:17:41.047Z,11.87
2022-10-31T18:19:26.823Z,11.87
2022-10-31T18:20:09.913Z,14.98
2022-10-31T18:22:36.795Z,14.41
2022-10-31T18:24:26.540Z,14.41
2022-10-31T18:25:04.744Z,14.85
2022-10-31T18:27:31.153Z,14.75
2022-10-31T18:29:26.579Z,14.75
2022-10-31T18:29:57.491Z,14.48
2022-10-31T18:32:23.913Z,14.19
2022-10-31T18:34:26.527Z,14.19
2022-10-31T18:34:50.277Z,14.65
2022-10-31T18:37:16.612Z,14.70
2022-10-31T18:39:26.522Z,14.70
2022-10-31T18:39:42.925Z,14.41
2022-10-31T18:42:09.261Z,14.26
2022-10-31T18:44:26.523Z,14.26
2022-10-31T18:44:35.587Z,14.61
2022-10-31T18:47:01.998Z,14.16
2022-10-31T18:49:26.578Z,14.16
2022-10-31T18:49:32.611Z,14.64
2022-10-31T18:51:59.730Z,14.32
2022-10-31T18:54:26.271Z,14.44
2022-10-31T18:54:26.529Z,14.44
2022-10-31T18:56:52.690Z,14.62
2022-10-31T18:59:19.243Z,14.27
2022-10-31T18:59:26.537Z,14.27
2022-10-31T19:01:45.676Z,14.54
2022-10-31T19:04:12.327Z,14.59
2022-10-31T19:04:26.554Z,14.59
2022-10-31T19:06:38.664Z,14.57
2022-10-31T19:09:10.573Z,14.54
2022-10-31T19:09:26.546Z,14.54
2022-10-31T19:11:37.843Z,14.56
2022-10-31T19:14:04.685Z,14.27
2022-10-31T19:14:26.535Z,14.27
2022-10-31T19:16:31.735Z,14.54
2022-10-31T19:18:59.959Z,14.43
2022-10-31T19:19:26.744Z,14.43
2022-10-31T19:21:27.158Z,14.16
2022-10-31T19:23:56.177Z,14.46
2022-10-31T19:24:26.597Z,14.46
2022-10-31T19:26:22.821Z,14.46
2022-10-31T19:28:49.177Z,14.47
2022-10-31T19:29:26.634Z,14.47
2022-10-31T19:31:15.862Z,14.33
2022-10-31T19:33:42.226Z,14.62
2022-10-31T19:34:26.572Z,14.62
2022-10-31T19:36:11.213Z,14.67
2022-10-31T19:38:39.714Z,14.70
2022-10-31T19:39:26.580Z,14.70
2022-10-31T19:41:24.925Z,14.69
2022-10-31T19:43:52.437Z,14.43
2022-10-31T19:44:26.594Z,14.43
2022-10-31T19:46:33.839Z,14.49
2022-10-31T19:49:07.577Z,14.63
2022-10-31T19:49:26.623Z,14.63
2022-10-31T19:51:34.003Z,14.65
2022-10-31T19:54:00.378Z,14.56
2022-10-31T19:54:26.647Z,14.56
2022-10-31T19:56:26.888Z,14.49
2022-10-31T19:58:53.309Z,14.53
2022-10-31T19:59:26.661Z,14.53
2022-10-31T20:01:22.583Z,14.65
2022-10-31T20:03:49.851Z,14.59
2022-10-31T20:04:26.680Z,14.59
2022-10-31T20:06:22.435Z,14.50
2022-10-31T20:08:49.302Z,14.43
2022-10-31T20:09:26.693Z,14.43
2022-10-31T20:11:16.417Z,14.21
2022-10-31T20:13:43.292Z,14.39
2022-10-31T20:14:26.711Z,14.39
2022-10-31T20:16:12.782Z,14.40
2022-10-31T20:18:39.695Z,14.07
2022-10-31T20:19:26.921Z,14.07
2022-10-31T20:21:14.643Z,14.39
2022-10-31T20:23:41.761Z,14.37
2022-10-31T20:24:26.758Z,14.37
2022-10-31T20:26:14.137Z,14.30
2022-10-31T20:28:43.287Z,14.06
2022-10-31T20:29:26.800Z,14.06
2022-10-31T20:31:18.346Z,14.08
2022-10-31T20:33:44.932Z,13.92
2022-10-31T20:34:26.798Z,13.92
2022-10-31T20:36:12.332Z,14.19
2022-10-31T20:38:40.166Z,14.13
2022-10-31T20:39:26.816Z,14.13
2022-10-31T20:41:09.976Z,14.05
2022-10-31T20:43:38.087Z,13.71
2022-10-31T20:44:26.865Z,13.71
2022-10-31T20:46:07.468Z,14.22
2022-10-31T20:48:34.380Z,13.91
2022-10-31T20:49:26.905Z,13.91
2022-10-31T20:51:04.557Z,13.90
2022-10-31T20:53:31.694Z,13.92
2022-10-31T20:54:26.899Z,13.92
2022-10-31T20:56:07.496Z,14.19
2022-10-31T20:58:35.564Z,13.71
2022-10-31T20:59:26.981Z,13.71
2022-10-31T21:01:02.169Z,14.18
2022-10-31T21:03:28.566Z,14.21
2022-10-31T21:04:27.075Z,14.21
2022-10-31T21:05:58.295Z,14.06
2022-10-31T21:08:26.170Z,13.73
2022-10-31T21:09:26.955Z,13.73
2022-10-31T21:10:52.720Z,13.77
2022-10-31T21:13:19.663Z,13.86
2022-10-31T21:14:27.015Z,13.86
2022-10-31T21:15:46.672Z,13.64
2022-10-31T21:18:13.738Z,13.89
2022-10-31T21:19:27.067Z,13.89
2022-10-31T21:20:43.913Z,13.99
2022-10-31T21:23:11.635Z,14.03
2022-10-31T21:24:27.034Z,14.03
2022-10-31T21:25:40.354Z,13.39
2022-10-31T21:28:07.751Z,14.00
2022-10-31T21:29:27.087Z,14.00
2022-10-31T21:30:34.890Z,13.59
2022-10-31T21:33:01.446Z,14.07
2022-10-31T21:34:27.122Z,14.07
2022-10-31T21:35:27.965Z,14.03
2022-10-31T21:37:54.324Z,14.03
2022-10-31T21:39:27.136Z,14.03
2022-10-31T21:40:20.657Z,13.73